createdAt,value
2019-02-06T00:01:38.122Z,101019.31
2019-02-06T00:04:08.140Z,101022.66
2019-02-06T00:06:36.591Z,101029.52
2019-02-06T00:09:09.807Z,101025.20
2019-02-06T00:11:38.178Z,101023.05
2019-02-06T00:14:06.463Z,101020.52
2019-02-06T00:16:34.821Z,101022.63
2019-02-06T00:19:03.220Z,101018.01
2019-02-06T00:21:31.572Z,101025.67
2019-02-06T00:23:59.848Z,101028.20
2019-02-06T00:26:28.239Z,101019.68
2019-02-06T00:28:56.632Z,101018.01
2019-02-06T00:31:25.073Z,101012.47
2019-02-06T00:33:53.391Z,101014.63
2019-02-06T00:36:21.861Z,101013.83
2019-02-06T00:38:50.619Z,101018.53
2019-02-06T00:41:18.943Z,101024.96
2019-02-06T00:43:47.228Z,101022.40
2019-02-06T00:46:15.589Z,101018.63
2019-02-06T00:48:43.896Z,101018.63
2019-02-06T00:51:12.165Z,101018.22
2019-02-06T00:53:40.469Z,101014.48
2019-02-06T00:56:08.783Z,101007.28
2019-02-06T00:58:37.126Z,101009.01
2019-02-06T01:01:05.632Z,101009.01
2019-02-06T01:03:34.028Z,100992.91
2019-02-06T01:06:05.097Z,101004.33
2019-02-06T01:08:33.467Z,101004.33
2019-02-06T01:11:02.154Z,101004.82
2019-02-06T01:13:30.431Z,101005.24
2019-02-06T01:15:58.704Z,101015.05
2019-02-06T01:18:27.104Z,101009.11
2019-02-06T01:20:56.994Z,101017.22
2019-02-06T01:23:25.271Z,101020.64
2019-02-06T01:25:53.597Z,101023.64
2019-02-06T01:28:22.256Z,101023.62
2019-02-06T01:30:52.191Z,101026.18
2019-02-06T01:33:20.494Z,101014.73
2019-02-06T01:35:50.243Z,101014.73
2019-02-06T01:38:18.834Z,101013.81
2019-02-06T01:40:47.147Z,101007.44
2019-02-06T01:43:15.529Z,101001.45
2019-02-06T01:45:43.846Z,100998.05
2019-02-06T01:48:12.156Z,100994.59
2019-02-06T01:50:40.435Z,100999.33
2019-02-06T01:53:08.700Z,100993.34
2019-02-06T01:55:37.026Z,100996.80
2019-02-06T01:58:05.301Z,100992.95
2019-02-06T02:00:33.707Z,100990.78
2019-02-06T02:03:02.011Z,100984.48
2019-02-06T02:05:31.391Z,100984.48
2019-02-06T02:07:59.755Z,100989.55
2019-02-06T02:10:28.242Z,100989.55
2019-02-06T02:12:56.517Z,100977.61
2019-02-06T02:15:24.886Z,100973.38
2019-02-06T02:17:53.551Z,100980.59
2019-02-06T02:20:23.758Z,100986.58
2019-02-06T02:22:53.770Z,100984.88
2019-02-06T02:25:22.088Z,100971.73
2019-02-06T02:27:50.503Z,100971.73
2019-02-06T02:30:25.544Z,100978.58
2019-02-06T02:32:53.839Z,100980.77
2019-02-06T02:35:22.199Z,100980.77
2019-02-06T02:37:50.462Z,100984.22
2019-02-06T02:40:18.775Z,100980.77
2019-02-06T02:42:47.267Z,100978.17
2019-02-06T02:45:17.579Z,100976.53
2019-02-06T02:47:47.450Z,100968.45
2019-02-06T02:50:15.874Z,100983.03
2019-02-06T02:52:44.178Z,100983.03
2019-02-06T02:55:14.017Z,100962.98
2019-02-06T02:57:42.347Z,100962.98
2019-02-06T03:00:25.595Z,100972.81
2019-02-06T03:02:58.209Z,100965.94
2019-02-06T03:05:29.408Z,100963.36
2019-02-06T03:07:58.595Z,100963.36
2019-02-06T03:10:26.889Z,100964.64
2019-02-06T03:12:55.223Z,100963.80
2019-02-06T03:15:23.839Z,100962.50
2019-02-06T03:17:52.291Z,100957.77
2019-02-06T03:20:20.731Z,100956.93
2019-02-06T03:22:49.047Z,100957.35
2019-02-06T03:25:17.510Z,100953.04
2019-02-06T03:27:45.803Z,100952.64
2019-02-06T03:30:17.025Z,100952.64
2019-02-06T03:32:45.297Z,100951.00
2019-02-06T03:35:13.567Z,100951.00
2019-02-06T03:37:41.955Z,100943.34
2019-02-06T03:40:12.876Z,100945.87
2019-02-06T03:42:41.148Z,100942.45
2019-02-06T03:45:12.359Z,100938.25
2019-02-06T03:47:40.647Z,100931.05
2019-02-06T03:50:17.480Z,100949.75
2019-02-06T03:52:45.760Z,100940.78
2019-02-06T03:55:14.034Z,100936.05
2019-02-06T03:57:42.338Z,100946.72
2019-02-06T04:00:18.747Z,100940.31
2019-02-06T04:02:47.071Z,100942.89
2019-02-06T04:05:15.496Z,100942.42
2019-02-06T04:07:43.793Z,100939.06
2019-02-06T04:10:17.607Z,100939.06
2019-02-06T04:12:45.955Z,100919.45
2019-02-06T04:15:14.648Z,100918.97
2019-02-06T04:17:42.990Z,100917.23
2019-02-06T04:20:17.104Z,100909.61
2019-02-06T04:22:45.378Z,100916.45
2019-02-06T04:25:14.763Z,100910.08
2019-02-06T04:27:43.048Z,100919.45
2019-02-06T04:30:19.379Z,100919.45
2019-02-06T04:32:47.853Z,100915.33
2019-02-06T04:35:18.230Z,100921.70
2019-02-06T04:37:46.499Z,100926.41
2019-02-06T04:40:17.409Z,100926.41
2019-02-06T04:42:46.233Z,100923.42
2019-02-06T04:45:16.863Z,100923.42
2019-02-06T04:47:45.349Z,100932.83
2019-02-06T04:50:15.073Z,100932.83
2019-02-06T04:52:43.426Z,100929.02
2019-02-06T04:55:14.396Z,100919.24
2019-02-06T04:57:42.681Z,100926.01
2019-02-06T05:00:16.787Z,100927.27
2019-02-06T05:02:45.242Z,100927.70
2019-02-06T05:05:13.743Z,100927.31
2019-02-06T05:07:42.020Z,100931.97
2019-02-06T05:10:12.958Z,100933.28
2019-02-06T05:12:41.247Z,100938.81
2019-02-06T05:15:11.562Z,100940.56
2019-02-06T05:17:39.947Z,100945.67
2019-02-06T05:20:35.341Z,100943.92
2019-02-06T05:23:03.858Z,100943.92
2019-02-06T05:25:32.205Z,100938.07
2019-02-06T05:28:00.483Z,100948.27
2019-02-06T05:30:28.793Z,100957.98
2019-02-06T05:32:57.065Z,100957.98
2019-02-06T05:35:25.344Z,100964.83
2019-02-06T05:37:53.708Z,100963.16
2019-02-06T05:40:22.361Z,100964.45
2019-02-06T05:42:52.743Z,100972.98
2019-02-06T05:45:20.661Z,100975.56
2019-02-06T05:47:48.961Z,100975.56
2019-02-06T05:50:18.486Z,100975.95
2019-02-06T05:52:46.789Z,100979.37
2019-02-06T05:55:16.918Z,100977.26
2019-02-06T05:57:45.809Z,100975.98
2019-02-06T06:00:21.214Z,100977.72
2019-02-06T06:02:49.719Z,100979.08
2019-02-06T06:05:18.132Z,100979.08
2019-02-06T06:07:46.526Z,100984.69
2019-02-06T06:10:17.041Z,100978.72
2019-02-06T06:12:45.867Z,100977.46
2019-02-06T06:15:17.386Z,100977.46
2019-02-06T06:17:45.660Z,100985.52
2019-02-06T06:20:16.185Z,100981.30
2019-02-06T06:22:44.623Z,100983.38
2019-02-06T06:25:14.902Z,100983.38
2019-02-06T06:27:43.774Z,100995.29
2019-02-06T06:30:17.140Z,100993.24
2019-02-06T06:32:45.415Z,100993.24
2019-02-06T06:35:14.430Z,100997.52
2019-02-06T06:37:42.749Z,101002.27
2019-02-06T06:40:14.133Z,101002.27
2019-02-06T06:42:42.898Z,100999.75
2019-02-06T06:45:14.047Z,100999.30
2019-02-06T06:47:42.476Z,101001.00
2019-02-06T06:50:13.634Z,101004.38
2019-02-06T06:52:41.937Z,101004.38
2019-02-06T06:55:12.461Z,101007.36
2019-02-06T06:57:41.246Z,101002.70
2019-02-06T07:00:18.718Z,101009.48
2019-02-06T07:02:46.989Z,101002.30
2019-02-06T07:05:16.212Z,101009.06
2019-02-06T07:07:44.674Z,101009.06
2019-02-06T07:10:19.526Z,101006.13
2019-02-06T07:12:47.873Z,101006.13
2019-02-06T07:15:19.193Z,101017.59
2019-02-06T07:17:48.475Z,101014.14
2019-02-06T07:20:18.487Z,101014.14
2019-02-06T07:22:46.791Z,101014.14
2019-02-06T07:25:28.179Z,101022.19
2019-02-06T07:27:56.603Z,101016.67
2019-02-06T07:30:29.916Z,101021.08
2019-02-06T07:32:58.210Z,101012.24
2019-02-06T07:35:28.793Z,101020.23
2019-02-06T07:37:57.554Z,101008.33
2019-02-06T07:40:26.442Z,101017.28
2019-02-06T07:42:54.833Z,101010.44
2019-02-06T07:45:23.114Z,101010.44
2019-02-06T07:47:51.387Z,101018.98
2019-02-06T07:50:27.792Z,101018.98
2019-02-06T07:52:58.080Z,101015.14
2019-02-06T07:55:26.371Z,101014.30
2019-02-06T07:57:54.688Z,101008.28
2019-02-06T08:00:22.985Z,101008.28
2019-02-06T08:02:53.884Z,101003.14
2019-02-06T08:05:24.386Z,101007.41
2019-02-06T08:07:53.032Z,101018.41
2019-02-06T08:10:24.002Z,101018.41
2019-02-06T08:12:52.312Z,101013.61
2019-02-06T08:15:20.758Z,101011.95
2019-02-06T08:17:49.110Z,101011.95
2019-02-06T08:20:21.865Z,101007.20
2019-02-06T08:22:50.726Z,101007.20
2019-02-06T08:25:31.953Z,101013.12
2019-02-06T08:30:55.828Z,101001.97
2019-02-06T08:33:24.139Z,101003.97
2019-02-06T08:35:52.433Z,101011.63
2019-02-06T08:38:20.710Z,100996.69
2019-02-06T08:40:49.025Z,100997.53
2019-02-06T08:43:17.397Z,100980.77
2019-02-06T08:45:45.745Z,100965.34
2019-02-06T08:48:14.065Z,100979.83
2019-02-06T08:50:42.393Z,100992.61
2019-02-06T08:53:10.679Z,101000.14
2019-02-06T08:55:38.984Z,101000.14
2019-02-06T08:58:07.261Z,100999.27
2019-02-06T09:00:37.949Z,101005.46
2019-02-06T09:03:07.776Z,101000.48
2019-02-06T09:05:36.057Z,101005.58
2019-02-06T09:08:04.566Z,101012.83
2019-02-06T09:10:32.888Z,101008.20
2019-02-06T09:13:01.320Z,101017.25
2019-02-06T09:15:29.608Z,101012.91
2019-02-06T09:17:57.912Z,101023.23
2019-02-06T09:20:27.546Z,101023.23
2019-02-06T09:22:56.454Z,101027.81
2019-02-06T09:25:26.417Z,101026.73
2019-02-06T09:27:54.892Z,101026.97
2019-02-06T09:30:25.330Z,101027.23
2019-02-06T09:32:54.888Z,101031.92
2019-02-06T09:35:23.445Z,101026.50
2019-02-06T09:37:51.728Z,101029.94
2019-02-06T09:40:23.039Z,101034.05
2019-02-06T09:42:51.317Z,101032.73
2019-02-06T09:45:19.886Z,101032.35
2019-02-06T09:47:48.676Z,101033.52
2019-02-06T09:50:20.189Z,101034.73
2019-02-06T09:52:48.492Z,101031.06
2019-02-06T09:55:16.860Z,101024.23
2019-02-06T09:57:45.331Z,101024.91
2019-02-06T10:00:17.020Z,101020.77
2019-02-06T10:02:45.484Z,101017.07
2019-02-06T10:05:13.772Z,101016.11
2019-02-06T10:07:42.230Z,101013.48
2019-02-06T10:10:16.487Z,101008.77
2019-02-06T10:12:44.820Z,101010.91
2019-02-06T10:15:19.109Z,101014.21
2019-02-06T10:17:47.432Z,101014.33
2019-02-06T10:20:18.609Z,101015.02
2019-02-06T10:22:46.941Z,101007.58
2019-02-06T10:25:15.249Z,101006.58
2019-02-06T10:27:43.545Z,101015.14
2019-02-06T10:30:20.891Z,101011.41
2019-02-06T10:32:49.174Z,101003.14
2019-02-06T10:35:17.856Z,101002.51
2019-02-06T10:37:46.167Z,100988.34
2019-02-06T10:40:14.517Z,100989.36
2019-02-06T10:42:42.792Z,100990.99
2019-02-06T10:45:14.047Z,100984.95
2019-02-06T10:47:42.771Z,100986.14
2019-02-06T10:50:23.097Z,100985.38
2019-02-06T10:52:51.353Z,100992.56
2019-02-06T10:55:19.627Z,100993.39
2019-02-06T10:57:47.958Z,100993.39
2019-02-06T11:00:25.158Z,100996.86
2019-02-06T11:02:54.086Z,100994.22
2019-02-06T11:05:22.513Z,100995.16
2019-02-06T11:07:50.872Z,100992.27
2019-02-06T11:10:22.288Z,100990.70
2019-02-06T11:12:50.636Z,100994.14
2019-02-06T11:15:18.918Z,100990.26
2019-02-06T11:17:47.224Z,100988.91
2019-02-06T11:20:23.434Z,100980.02
2019-02-06T11:22:51.750Z,100982.36
2019-02-06T11:25:20.030Z,100978.89
2019-02-06T11:27:49.117Z,100979.75
2019-02-06T11:30:26.864Z,100975.69
2019-02-06T11:32:55.139Z,100975.55
2019-02-06T11:35:23.421Z,100966.99
2019-02-06T11:37:51.806Z,100963.42
2019-02-06T11:40:22.396Z,100964.49
2019-02-06T11:42:50.674Z,100964.41
2019-02-06T11:45:24.742Z,100966.42
2019-02-06T11:47:53.039Z,100965.34
2019-02-06T11:50:30.365Z,100956.91
2019-02-06T11:52:58.639Z,100955.91
2019-02-06T11:55:29.361Z,100957.03
2019-02-06T11:57:57.680Z,100947.86
2019-02-06T12:00:48.312Z,100946.06
2019-02-06T12:03:16.108Z,100947.31
2019-02-06T12:05:44.380Z,100943.56
2019-02-06T12:08:12.890Z,100933.84
2019-02-06T12:10:41.335Z,100944.88
2019-02-06T12:13:09.687Z,100949.27
2019-02-06T12:15:37.987Z,100944.49
2019-02-06T12:18:07.022Z,100957.00
2019-02-06T12:20:35.933Z,100942.16
2019-02-06T12:23:04.853Z,100945.71
2019-02-06T12:25:34.609Z,100952.09
2019-02-06T12:28:05.157Z,100938.34
2019-02-06T12:30:36.033Z,100942.02
2019-02-06T12:33:04.820Z,100938.84
2019-02-06T12:35:33.106Z,100936.93
2019-02-06T12:38:01.388Z,100935.22
2019-02-06T12:40:29.695Z,100935.81
2019-02-06T12:42:57.985Z,100935.81
2019-02-06T12:45:26.329Z,100932.58
2019-02-06T12:47:55.182Z,100930.50
2019-02-06T12:50:24.706Z,100930.67
2019-02-06T12:52:52.997Z,100938.61
2019-02-06T12:55:26.953Z,100952.86
2019-02-06T12:57:55.246Z,100947.41
2019-02-06T13:00:26.779Z,100953.92
2019-02-06T13:02:57.541Z,100956.88
2019-02-06T13:05:25.625Z,100942.92
2019-02-06T13:07:53.907Z,100944.56
2019-02-06T13:10:33.304Z,100949.94
2019-02-06T13:12:53.822Z,100953.41
2019-02-06T13:15:22.215Z,100948.38
2019-02-06T13:17:50.999Z,100946.73
2019-02-06T13:20:30.280Z,100947.61
2019-02-06T13:22:58.624Z,100944.08
2019-02-06T13:25:26.913Z,100944.12
2019-02-06T13:27:55.256Z,100944.12
2019-02-06T13:30:40.564Z,100955.63
2019-02-06T13:33:11.565Z,100959.95
2019-02-06T13:35:42.132Z,100954.02
2019-02-06T13:38:13.728Z,100955.56
2019-02-06T13:40:45.778Z,100946.34
2019-02-06T13:43:12.048Z,100950.97
2019-02-06T13:45:48.544Z,100951.20
2019-02-06T13:48:17.002Z,100949.05
2019-02-06T13:50:45.283Z,100944.66
2019-02-06T13:53:13.590Z,100954.02
2019-02-06T13:55:41.865Z,100947.51
2019-02-06T13:58:19.872Z,100953.34
2019-02-06T14:00:42.428Z,100951.92
2019-02-06T14:03:10.706Z,100952.89
2019-02-06T14:05:39.316Z,100954.66
2019-02-06T14:08:11.825Z,100948.79
2019-02-06T14:10:40.092Z,100939.30
2019-02-06T14:13:10.871Z,100944.98
2019-02-06T14:15:45.868Z,100943.76
2019-02-06T14:18:15.780Z,100930.67
2019-02-06T14:20:46.349Z,100938.27
2019-02-06T14:23:29.175Z,100936.00
2019-02-06T14:26:21.764Z,100942.83
2019-02-06T14:28:58.977Z,100936.09
2019-02-06T14:31:39.804Z,100942.92
2019-02-06T14:34:29.030Z,100938.50
2019-02-06T14:37:27.921Z,100936.83
2019-02-06T14:40:05.681Z,100930.83
2019-02-06T14:42:45.854Z,100932.66
2019-02-06T14:45:36.075Z,100931.89
2019-02-06T14:48:22.471Z,100920.32
2019-02-06T14:51:12.432Z,100933.98
2019-02-06T14:53:49.741Z,100935.70
2019-02-06T14:56:38.559Z,100939.69
2019-02-06T14:59:15.576Z,100944.75
2019-02-06T15:01:58.800Z,100943.09
2019-02-06T15:04:51.039Z,100945.27
2019-02-06T15:07:37.427Z,100945.62
2019-02-06T15:10:10.615Z,100940.58
2019-02-06T15:13:12.348Z,100948.31
2019-02-06T15:16:00.350Z,100946.25
2019-02-06T15:18:32.001Z,100945.87
2019-02-06T15:21:12.667Z,100956.16
2019-02-06T15:23:56.294Z,100954.09
2019-02-06T15:26:33.651Z,100945.06
2019-02-06T15:29:12.403Z,100955.80
2019-02-06T15:31:55.817Z,100949.48
2019-02-06T15:34:42.258Z,100947.39
2019-02-06T15:37:22.058Z,100953.74
2019-02-06T15:40:26.922Z,100953.80
2019-02-06T15:43:04.518Z,100957.66
2019-02-06T15:45:41.921Z,100957.66
2019-02-06T15:48:16.573Z,100961.08
2019-02-06T15:51:16.860Z,100959.34
2019-02-06T15:54:09.243Z,100960.62
2019-02-06T15:56:43.561Z,100958.58
2019-02-06T15:59:17.518Z,100960.30
2019-02-06T16:02:05.240Z,100967.04
2019-02-06T16:04:50.032Z,100962.75
2019-02-06T16:07:36.426Z,100964.48
2019-02-06T16:10:16.567Z,100967.10
2019-02-06T16:12:59.954Z,100977.80
2019-02-06T16:15:40.125Z,100973.21
2019-02-06T16:18:35.594Z,100980.81
2019-02-06T16:21:15.967Z,100977.83
2019-02-06T16:24:05.633Z,100977.83
2019-02-06T16:26:52.105Z,100985.16
2019-02-06T16:29:45.827Z,100987.78
2019-02-06T16:32:24.608Z,100983.63
2019-02-06T16:35:15.249Z,100983.77
2019-02-06T16:40:56.311Z,100993.55
2019-02-06T16:43:32.219Z,101004.72
2019-02-06T16:46:12.261Z,101000.45
2019-02-06T16:49:01.944Z,101002.66
2019-02-06T16:51:35.580Z,101011.68
2019-02-06T16:54:18.809Z,101007.81
2019-02-06T16:56:52.020Z,101004.36
2019-02-06T16:59:44.663Z,101013.77
2019-02-06T17:02:54.754Z,101007.86
2019-02-06T17:05:34.938Z,101012.56
2019-02-06T17:08:32.891Z,101019.39
2019-02-06T17:11:16.181Z,101016.78
2019-02-06T17:14:02.052Z,101017.25
2019-02-06T17:16:50.201Z,101025.33
2019-02-06T17:19:44.146Z,101021.45
2019-02-06T17:22:37.152Z,101023.13
2019-02-06T17:25:30.859Z,101026.53
2019-02-06T17:28:02.657Z,101027.81
2019-02-06T17:30:50.983Z,101030.80
2019-02-06T17:33:26.295Z,101030.80
2019-02-06T17:36:02.017Z,101032.49
2019-02-06T17:38:41.022Z,101029.93
2019-02-06T17:41:15.681Z,101027.39
2019-02-06T17:44:12.558Z,101030.80
2019-02-06T17:46:48.941Z,101020.52
2019-02-06T17:49:55.088Z,101026.84
2019-02-06T17:52:59.723Z,101027.73
2019-02-06T17:55:30.033Z,101030.37
2019-02-06T17:58:02.464Z,101026.48
2019-02-06T18:00:37.142Z,101025.22
2019-02-06T18:03:08.914Z,101030.41
2019-02-06T18:05:41.141Z,101032.86
2019-02-06T18:08:11.169Z,101035.42
2019-02-06T18:10:42.347Z,101025.27
2019-02-06T18:13:14.152Z,101031.16
2019-02-06T18:15:44.100Z,101027.20
2019-02-06T18:18:16.376Z,101029.72
2019-02-06T18:20:48.996Z,101030.11
2019-02-06T18:23:21.404Z,101031.39
2019-02-06T18:25:54.592Z,101042.90
2019-02-06T18:28:23.146Z,101039.97
2019-02-06T18:30:52.829Z,101040.02
2019-02-06T18:33:23.631Z,101037.05
2019-02-06T18:35:56.052Z,101043.45
2019-02-06T18:38:26.124Z,101045.57
2019-02-06T18:40:58.658Z,101043.37
2019-02-06T18:43:26.947Z,101044.20
2019-02-06T18:45:55.262Z,101043.73
2019-02-06T18:48:23.610Z,101041.53
2019-02-06T18:50:52.269Z,101050.45
2019-02-06T18:53:22.966Z,101050.45
2019-02-06T18:55:54.922Z,101046.61
2019-02-06T18:58:27.548Z,101059.53
2019-02-06T19:01:00.363Z,101050.95
2019-02-06T19:03:35.237Z,101051.79
2019-02-06T19:06:06.903Z,101053.83
2019-02-06T19:08:40.127Z,101049.48
2019-02-06T19:11:10.130Z,101051.59
2019-02-06T19:13:40.792Z,101051.55
2019-02-06T19:16:10.716Z,101047.22
2019-02-06T19:18:40.639Z,101055.75
2019-02-06T19:21:10.614Z,101048.50
2019-02-06T19:23:39.196Z,101051.96
2019-02-06T19:26:09.276Z,101050.82
2019-02-06T19:28:42.418Z,101048.81
2019-02-06T19:31:10.840Z,101055.66
2019-02-06T19:33:41.105Z,101053.99
2019-02-06T19:36:11.006Z,101052.32
2019-02-06T19:38:39.581Z,101055.35
2019-02-06T19:41:08.023Z,101045.20
2019-02-06T19:43:36.422Z,101049.08
2019-02-06T19:46:06.507Z,101042.28
2019-02-06T19:48:34.880Z,101042.30
2019-02-06T19:51:03.344Z,101044.52
2019-02-06T19:53:31.637Z,101050.14
2019-02-06T19:55:59.956Z,101051.13
2019-02-06T19:58:28.711Z,101049.48
2019-02-06T20:00:56.984Z,101055.55
2019-02-06T20:03:25.407Z,101055.62
2019-02-06T20:05:53.809Z,101045.91
2019-02-06T20:08:22.108Z,101052.35
2019-02-06T20:10:52.828Z,101054.59
2019-02-06T20:13:21.168Z,101041.02
2019-02-06T20:15:49.893Z,101049.70
2019-02-06T20:18:18.233Z,101051.00
2019-02-06T20:20:46.624Z,101045.54
2019-02-06T20:23:15.040Z,101051.13
2019-02-06T20:25:43.500Z,101050.36
2019-02-06T20:28:13.628Z,101055.11
2019-02-06T20:30:42.654Z,101045.75
2019-02-06T20:33:10.912Z,101053.05
2019-02-06T20:35:39.586Z,101050.93
2019-02-06T20:38:12.383Z,101056.01
2019-02-06T20:40:43.107Z,101058.20
2019-02-06T20:43:21.462Z,101057.45
2019-02-06T20:45:42.423Z,101060.41
2019-02-06T20:48:10.746Z,101063.82
2019-02-06T20:50:41.262Z,101063.82
2019-02-06T20:53:11.186Z,101064.77
2019-02-06T20:55:44.894Z,101062.30
2019-02-06T20:58:15.450Z,101068.70
2019-02-06T21:00:45.373Z,101053.91
2019-02-06T21:03:16.623Z,101050.92
2019-02-06T21:05:45.345Z,101050.92
2019-02-06T21:08:13.771Z,101047.17
2019-02-06T21:10:43.764Z,101042.13
2019-02-06T21:13:13.718Z,101042.16
2019-02-06T21:15:42.086Z,101043.94
2019-02-06T21:18:12.001Z,101033.31
2019-02-06T21:20:40.867Z,101037.17
2019-02-06T21:23:09.220Z,101037.17
2019-02-06T21:25:37.657Z,101038.92
2019-02-06T21:28:06.208Z,101037.28
2019-02-06T21:30:42.116Z,101042.02
2019-02-06T21:33:10.390Z,101032.78
2019-02-06T21:35:39.245Z,101037.88
2019-02-06T21:38:07.542Z,101037.88
2019-02-06T21:40:37.187Z,101045.98
2019-02-06T21:43:06.719Z,101045.98
2019-02-06T21:45:35.035Z,101040.56
2019-02-06T21:48:03.283Z,101040.56
2019-02-06T21:50:31.643Z,101046.15
2019-02-06T21:52:59.976Z,101043.62
2019-02-06T21:55:28.334Z,101043.62
2019-02-06T21:57:56.787Z,101042.78
2019-02-06T22:00:27.796Z,101042.78
2019-02-06T22:02:56.311Z,101046.23
2019-02-06T22:05:24.775Z,101046.64
2019-02-06T22:07:53.584Z,101056.43
2019-02-06T22:10:22.873Z,101051.81
2019-02-06T22:12:51.201Z,101051.81
2019-02-06T22:15:25.083Z,101056.95
2019-02-06T22:17:53.445Z,101059.53
2019-02-06T22:20:21.909Z,101059.53
2019-02-06T22:22:50.263Z,101060.82
2019-02-06T22:25:18.611Z,101063.80
2019-02-06T22:27:47.003Z,101063.80
2019-02-06T22:30:18.300Z,101065.04
2019-02-06T22:32:46.644Z,101065.93
2019-02-06T22:35:15.149Z,101065.06
2019-02-06T22:37:43.892Z,101057.41
2019-02-06T22:40:17.428Z,101061.66
2019-02-06T22:42:45.743Z,101061.27
2019-02-06T22:45:19.485Z,101057.92
2019-02-06T22:47:48.020Z,101066.02
2019-02-06T22:50:22.653Z,101066.02
2019-02-06T22:52:50.958Z,101063.03
2019-02-06T22:55:19.329Z,101059.23
2019-02-06T22:57:47.720Z,101060.07
2019-02-06T23:00:48.230Z,101059.67
2019-02-06T23:03:22.790Z,101058.43
2019-02-06T23:05:51.113Z,101052.88
2019-02-06T23:08:19.390Z,101054.18
2019-02-06T23:10:47.698Z,101060.58
2019-02-06T23:13:16.507Z,101055.50
2019-02-06T23:15:44.865Z,101055.50
2019-02-06T23:18:13.255Z,101058.91
2019-02-06T23:20:41.553Z,101056.81
2019-02-06T23:23:09.902Z,101067.03
2019-02-06T23:25:38.217Z,101067.03
2019-02-06T23:28:06.499Z,101065.78
2019-02-06T23:30:34.786Z,101059.45
2019-02-06T23:33:03.099Z,101059.45
2019-02-06T23:35:31.388Z,101051.41
2019-02-06T23:37:59.684Z,101051.41
2019-02-06T23:40:28.008Z,101055.69
2019-02-06T23:42:56.304Z,101053.13
2019-02-06T23:45:24.967Z,101042.12
2019-02-06T23:47:53.279Z,101042.12
2019-02-06T23:50:21.576Z,101049.77
2019-02-06T23:52:49.942Z,101056.17
2019-02-06T23:55:18.254Z,101056.17
2019-02-06T23:57:46.540Z,101059.61
